sensor_id;sensor_type;location;lat;lon;timestamp;P1;durP1;ratioP1;P2;durP2;ratioP2
29120;SDS011;16191;49.548;8.658;2022-11-12T00:01:09;17.30;;;10.55;;
29120;SDS011;16191;49.548;8.658;2022-11-12T00:03:54;13.88;;;9.50;;
29120;SDS011;16191;49.548;8.658;2022-11-12T00:06:41;13.07;;;9.07;;
29120;SDS011;16191;49.548;8.658;2022-11-12T00:09:26;19.85;;;9.25;;
29120;SDS011;16191;49.548;8.658;2022-11-12T00:12:10;16.88;;;10.48;;
29120;SDS011;16191;49.548;8.658;2022-11-12T00:14:55;16.85;;;11.05;;
29120;SDS011;16191;49.548;8.658;2022-11-12T00:17:40;19.83;;;10.20;;
29120;SDS011;16191;49.548;8.658;2022-11-12T00:20:25;19.60;;;11.15;;
29120;SDS011;16191;49.548;8.658;2022-11-12T00:23:10;17.20;;;10.75;;
29120;SDS011;16191;49.548;8.658;2022-11-12T00:25:59;16.13;;;10.02;;
29120;SDS011;16191;49.548;8.658;2022-11-12T00:28:45;37.67;;;10.57;;
29120;SDS011;16191;49.548;8.658;2022-11-12T00:31:30;19.63;;;10.63;;
29120;SDS011;16191;49.548;8.658;2022-11-12T00:34:15;18.95;;;11.60;;
29120;SDS011;16191;49.548;8.658;2022-11-12T00:37:00;18.77;;;10.75;;
29120;SDS011;16191;49.548;8.658;2022-11-12T00:39:46;19.67;;;11.07;;
29120;SDS011;16191;49.548;8.658;2022-11-12T00:42:31;24.75;;;10.43;;
29120;SDS011;16191;49.548;8.658;2022-11-12T00:45:16;13.43;;;9.50;;
29120;SDS011;16191;49.548;8.658;2022-11-12T00:48:01;12.68;;;9.23;;
29120;SDS011;16191;49.548;8.658;2022-11-12T00:50:47;12.45;;;8.60;;
29120;SDS011;16191;49.548;8.658;2022-11-12T00:53:32;11.63;;;8.40;;
29120;SDS011;16191;49.548;8.658;2022-11-12T00:56:17;12.23;;;8.82;;
29120;SDS011;16191;49.548;8.658;2022-11-12T00:59:02;10.43;;;7.63;;
29120;SDS011;16191;49.548;8.658;2022-11-12T01:01:47;11.60;;;7.93;;
29120;SDS011;16191;49.548;8.658;2022-11-12T01:04:33;12.35;;;7.55;;
29120;SDS011;16191;49.548;8.658;2022-11-12T01:07:18;13.23;;;8.70;;
29120;SDS011;16191;49.548;8.658;2022-11-12T01:10:23;14.18;;;8.82;;
29120;SDS011;16191;49.548;8.658;2022-11-12T01:13:28;13.13;;;9.35;;
29120;SDS011;16191;49.548;8.658;2022-11-12T01:16:34;13.98;;;9.07;;
29120;SDS011;16191;49.548;8.658;2022-11-12T01:19:41;12.00;;;8.15;;
29120;SDS011;16191;49.548;8.658;2022-11-12T01:22:47;13.40;;;9.23;;
29120;SDS011;16191;49.548;8.658;2022-11-12T01:25:52;16.05;;;9.20;;
29120;SDS011;16191;49.548;8.658;2022-11-12T01:28:40;12.40;;;8.68;;
29120;SDS011;16191;49.548;8.658;2022-11-12T01:31:28;12.18;;;9.15;;
29120;SDS011;16191;49.548;8.658;2022-11-12T01:34:21;15.98;;;9.35;;
29120;SDS011;16191;49.548;8.658;2022-11-12T01:37:06;19.95;;;9.18;;
29120;SDS011;16191;49.548;8.658;2022-11-12T01:39:51;14.32;;;9.45;;
29120;SDS011;16191;49.548;8.658;2022-11-12T01:42:37;13.13;;;8.52;;
29120;SDS011;16191;49.548;8.658;2022-11-12T01:45:22;13.45;;;8.90;;
29120;SDS011;16191;49.548;8.658;2022-11-12T01:48:11;14.40;;;9.15;;
29120;SDS011;16191;49.548;8.658;2022-11-12T01:51:09;22.77;;;8.70;;
29120;SDS011;16191;49.548;8.658;2022-11-12T01:53:56;15.27;;;8.90;;
29120;SDS011;16191;49.548;8.658;2022-11-12T01:56:44;12.90;;;8.82;;
29120;SDS011;16191;49.548;8.658;2022-11-12T01:59:32;16.25;;;9.32;;
29120;SDS011;16191;49.548;8.658;2022-11-12T02:02:24;15.63;;;8.98;;
29120;SDS011;16191;49.548;8.658;2022-11-12T02:05:10;13.15;;;7.78;;
29120;SDS011;16191;49.548;8.658;2022-11-12T02:07:57;14.27;;;8.18;;
29120;SDS011;16191;49.548;8.658;2022-11-12T02:10:45;15.60;;;8.15;;
29120;SDS011;16191;49.548;8.658;2022-11-12T02:13:30;11.93;;;8.27;;
29120;SDS011;16191;49.548;8.658;2022-11-12T02:16:38;16.52;;;8.80;;
29120;SDS011;16191;49.548;8.658;2022-11-12T02:19:25;13.95;;;8.18;;
29120;SDS011;16191;49.548;8.658;2022-11-12T02:22:10;18.52;;;8.75;;
29120;SDS011;16191;49.548;8.658;2022-11-12T02:24:55;14.63;;;9.18;;
29120;SDS011;16191;49.548;8.658;2022-11-12T02:27:41;33.80;;;9.55;;
29120;SDS011;16191;49.548;8.658;2022-11-12T02:33:26;13.65;;;7.88;;
29120;SDS011;16191;49.548;8.658;2022-11-12T02:36:12;12.07;;;8.38;;
29120;SDS011;16191;49.548;8.658;2022-11-12T02:38:58;17.20;;;7.78;;
29120;SDS011;16191;49.548;8.658;2022-11-12T02:41:43;13.80;;;8.18;;
29120;SDS011;16191;49.548;8.658;2022-11-12T02:44:28;10.45;;;7.47;;
29120;SDS011;16191;49.548;8.658;2022-11-12T02:47:15;15.10;;;7.50;;
29120;SDS011;16191;49.548;8.658;2022-11-12T02:50:00;11.15;;;7.55;;
29120;SDS011;16191;49.548;8.658;2022-11-12T02:52:46;19.25;;;7.70;;
29120;SDS011;16191;49.548;8.658;2022-11-12T02:55:32;13.77;;;7.45;;
29120;SDS011;16191;49.548;8.658;2022-11-12T02:58:17;22.70;;;7.82;;
29120;SDS011;16191;49.548;8.658;2022-11-12T03:01:02;9.88;;;7.30;;
29120;SDS011;16191;49.548;8.658;2022-11-12T03:03:48;9.32;;;7.18;;
29120;SDS011;16191;49.548;8.658;2022-11-12T03:06:33;12.98;;;7.18;;
29120;SDS011;16191;49.548;8.658;2022-11-12T03:09:18;12.07;;;7.45;;
29120;SDS011;16191;49.548;8.658;2022-11-12T03:12:03;8.90;;;6.38;;
29120;SDS011;16191;49.548;8.658;2022-11-12T03:14:49;8.13;;;6.05;;
29120;SDS011;16191;49.548;8.658;2022-11-12T03:17:34;9.48;;;6.38;;
29120;SDS011;16191;49.548;8.658;2022-11-12T03:20:19;15.07;;;7.18;;
29120;SDS011;16191;49.548;8.658;2022-11-12T03:23:06;13.48;;;6.63;;
29120;SDS011;16191;49.548;8.658;2022-11-12T03:25:53;10.10;;;6.32;;
29120;SDS011;16191;49.548;8.658;2022-11-12T03:28:38;18.92;;;6.88;;
29120;SDS011;16191;49.548;8.658;2022-11-12T03:31:24;8.25;;;6.50;;
29120;SDS011;16191;49.548;8.658;2022-11-12T03:34:09;8.10;;;5.63;;
29120;SDS011;16191;49.548;8.658;2022-11-12T03:36:55;9.48;;;6.07;;
29120;SDS011;16191;49.548;8.658;2022-11-12T03:39:40;11.65;;;6.65;;
29120;SDS011;16191;49.548;8.658;2022-11-12T03:42:26;8.45;;;6.50;;
29120;SDS011;16191;49.548;8.658;2022-11-12T03:45:12;12.05;;;6.05;;
29120;SDS011;16191;49.548;8.658;2022-11-12T03:47:58;13.75;;;6.57;;
29120;SDS011;16191;49.548;8.658;2022-11-12T03:50:44;8.25;;;5.93;;
29120;SDS011;16191;49.548;8.658;2022-11-12T03:53:29;7.03;;;5.68;;
29120;SDS011;16191;49.548;8.658;2022-11-12T03:56:15;8.68;;;6.32;;
29120;SDS011;16191;49.548;8.658;2022-11-12T03:59:00;10.52;;;6.07;;
29120;SDS011;16191;49.548;8.658;2022-11-12T04:01:45;9.20;;;6.75;;
29120;SDS011;16191;49.548;8.658;2022-11-12T04:04:31;5.93;;;4.90;;
29120;SDS011;16191;49.548;8.658;2022-11-12T04:07:36;7.22;;;5.82;;
29120;SDS011;16191;49.548;8.658;2022-11-12T04:10:40;6.85;;;5.30;;
29120;SDS011;16191;49.548;8.658;2022-11-12T04:13:26;7.40;;;5.43;;
29120;SDS011;16191;49.548;8.658;2022-11-12T04:16:15;6.85;;;5.68;;
29120;SDS011;16191;49.548;8.658;2022-11-12T04:19:21;13.30;;;6.10;;
29120;SDS011;16191;49.548;8.658;2022-11-12T04:22:25;8.02;;;5.72;;
29120;SDS011;16191;49.548;8.658;2022-11-12T04:25:11;10.20;;;5.28;;
29120;SDS011;16191;49.548;8.658;2022-11-12T04:28:15;7.13;;;5.38;;
29120;SDS011;16191;49.548;8.658;2022-11-12T04:31:00;10.63;;;5.30;;
29120;SDS011;16191;49.548;8.658;2022-11-12T04:33:45;6.95;;;5.07;;
29120;SDS011;16191;49.548;8.658;2022-11-12T04:36:31;9.82;;;5.55;;
29120;SDS011;16191;49.548;8.658;2022-11-12T04:39:16;8.93;;;5.45;;
29120;SDS011;16191;49.548;8.658;2022-11-12T04:42:02;6.80;;;5.05;;
29120;SDS011;16191;49.548;8.658;2022-11-12T04:45:08;5.25;;;4.40;;
29120;SDS011;16191;49.548;8.658;2022-11-12T04:47:54;6.80;;;5.18;;
29120;SDS011;16191;49.548;8.658;2022-11-12T04:50:41;14.73;;;5.00;;
29120;SDS011;16191;49.548;8.658;2022-11-12T04:53:28;6.35;;;4.82;;
29120;SDS011;16191;49.548;8.658;2022-11-12T04:56:15;8.77;;;5.40;;
29120;SDS011;16191;49.548;8.658;2022-11-12T04:59:00;5.88;;;4.75;;
29120;SDS011;16191;49.548;8.658;2022-11-12T05:01:45;12.77;;;4.95;;
29120;SDS011;16191;49.548;8.658;2022-11-12T05:04:30;6.03;;;4.78;;
29120;SDS011;16191;49.548;8.658;2022-11-12T05:07:16;6.10;;;4.65;;
29120;SDS011;16191;49.548;8.658;2022-11-12T05:10:02;16.85;;;5.03;;
29120;SDS011;16191;49.548;8.658;2022-11-12T05:12:48;6.78;;;4.68;;
29120;SDS011;16191;49.548;8.658;2022-11-12T05:15:33;5.75;;;4.30;;
29120;SDS011;16191;49.548;8.658;2022-11-12T05:18:19;7.35;;;4.20;;
29120;SDS011;16191;49.548;8.658;2022-11-12T05:21:04;15.65;;;5.22;;
29120;SDS011;16191;49.548;8.658;2022-11-12T05:24:09;12.43;;;4.43;;
29120;SDS011;16191;49.548;8.658;2022-11-12T05:27:16;5.60;;;4.10;;
29120;SDS011;16191;49.548;8.658;2022-11-12T05:30:03;9.02;;;4.30;;
29120;SDS011;16191;49.548;8.658;2022-11-12T05:32:49;6.05;;;4.47;;
29120;SDS011;16191;49.548;8.658;2022-11-12T05:35:35;6.63;;;4.25;;
29120;SDS011;16191;49.548;8.658;2022-11-12T05:38:20;12.00;;;5.32;;
29120;SDS011;16191;49.548;8.658;2022-11-12T05:41:05;7.47;;;4.32;;
29120;SDS011;16191;49.548;8.658;2022-11-12T05:43:51;5.90;;;4.22;;
29120;SDS011;16191;49.548;8.658;2022-11-12T05:46:36;6.00;;;4.00;;
29120;SDS011;16191;49.548;8.658;2022-11-12T05:49:22;4.70;;;3.58;;
29120;SDS011;16191;49.548;8.658;2022-11-12T05:52:07;5.53;;;3.55;;
29120;SDS011;16191;49.548;8.658;2022-11-12T05:54:52;5.05;;;3.55;;
29120;SDS011;16191;49.548;8.658;2022-11-12T05:57:37;4.97;;;3.50;;
29120;SDS011;16191;49.548;8.658;2022-11-12T06:00:23;3.58;;;3.25;;
29120;SDS011;16191;49.548;8.658;2022-11-12T06:03:09;3.78;;;3.10;;
29120;SDS011;16191;49.548;8.658;2022-11-12T06:05:56;5.38;;;3.25;;
29120;SDS011;16191;49.548;8.658;2022-11-12T06:08:41;3.90;;;3.40;;
29120;SDS011;16191;49.548;8.658;2022-11-12T06:11:27;4.82;;;3.80;;
29120;SDS011;16191;49.548;8.658;2022-11-12T06:14:12;4.28;;;3.45;;
29120;SDS011;16191;49.548;8.658;2022-11-12T06:16:57;6.10;;;4.00;;
29120;SDS011;16191;49.548;8.658;2022-11-12T06:19:42;6.68;;;4.35;;
29120;SDS011;16191;49.548;8.658;2022-11-12T06:22:27;6.20;;;3.88;;
29120;SDS011;16191;49.548;8.658;2022-11-12T06:25:12;6.93;;;3.47;;
29120;SDS011;16191;49.548;8.658;2022-11-12T06:27:58;7.75;;;4.15;;
29120;SDS011;16191;49.548;8.658;2022-11-12T06:30:43;5.00;;;3.90;;
29120;SDS011;16191;49.548;8.658;2022-11-12T06:33:29;9.27;;;4.25;;
29120;SDS011;16191;49.548;8.658;2022-11-12T06:36:17;10.60;;;3.85;;
29120;SDS011;16191;49.548;8.658;2022-11-12T06:39:03;7.15;;;3.63;;
29120;SDS011;16191;49.548;8.658;2022-11-12T06:41:49;7.85;;;3.92;;
29120;SDS011;16191;49.548;8.658;2022-11-12T06:44:35;7.75;;;4.05;;
29120;SDS011;16191;49.548;8.658;2022-11-12T06:47:20;6.80;;;3.88;;
29120;SDS011;16191;49.548;8.658;2022-11-12T06:50:05;8.05;;;4.00;;
29120;SDS011;16191;49.548;8.658;2022-11-12T06:52:51;6.40;;;3.75;;
29120;SDS011;16191;49.548;8.658;2022-11-12T06:55:42;10.15;;;3.63;;
29120;SDS011;16191;49.548;8.658;2022-11-12T06:58:28;9.48;;;3.58;;
29120;SDS011;16191;49.548;8.658;2022-11-12T07:01:14;3.67;;;2.95;;
29120;SDS011;16191;49.548;8.658;2022-11-12T07:04:02;4.93;;;3.47;;
29120;SDS011;16191;49.548;8.658;2022-11-12T07:06:47;4.53;;;2.70;;
29120;SDS011;16191;49.548;8.658;2022-11-12T07:09:33;4.72;;;2.75;;
29120;SDS011;16191;49.548;8.658;2022-11-12T07:12:20;3.22;;;2.58;;
29120;SDS011;16191;49.548;8.658;2022-11-12T07:15:05;3.67;;;2.85;;
29120;SDS011;16191;49.548;8.658;2022-11-12T07:17:51;3.80;;;2.58;;
29120;SDS011;16191;49.548;8.658;2022-11-12T07:20:36;4.82;;;3.25;;
29120;SDS011;16191;49.548;8.658;2022-11-12T07:23:21;3.63;;;2.83;;
29120;SDS011;16191;49.548;8.658;2022-11-12T07:26:11;4.47;;;3.05;;
29120;SDS011;16191;49.548;8.658;2022-11-12T07:28:59;3.47;;;2.70;;
29120;SDS011;16191;49.548;8.658;2022-11-12T07:31:44;4.22;;;3.00;;
29120;SDS011;16191;49.548;8.658;2022-11-12T07:34:29;3.22;;;2.78;;
29120;SDS011;16191;49.548;8.658;2022-11-12T07:37:15;5.40;;;3.53;;
29120;SDS011;16191;49.548;8.658;2022-11-12T07:40:01;3.55;;;2.92;;
29120;SDS011;16191;49.548;8.658;2022-11-12T07:42:48;4.95;;;3.45;;
29120;SDS011;16191;49.548;8.658;2022-11-12T07:45:33;7.60;;;3.60;;
29120;SDS011;16191;49.548;8.658;2022-11-12T07:48:18;5.60;;;2.92;;
29120;SDS011;16191;49.548;8.658;2022-11-12T07:53:54;3.60;;;2.60;;
29120;SDS011;16191;49.548;8.658;2022-11-12T07:56:44;4.63;;;3.42;;
29120;SDS011;16191;49.548;8.658;2022-11-12T07:59:29;4.57;;;3.20;;
29120;SDS011;16191;49.548;8.658;2022-11-12T08:02:14;5.80;;;3.45;;
29120;SDS011;16191;49.548;8.658;2022-11-12T08:05:01;3.80;;;3.22;;
29120;SDS011;16191;49.548;8.658;2022-11-12T08:07:54;4.80;;;3.60;;
29120;SDS011;16191;49.548;8.658;2022-11-12T08:10:40;5.97;;;3.90;;
29120;SDS011;16191;49.548;8.658;2022-11-12T08:13:26;5.97;;;3.83;;
29120;SDS011;16191;49.548;8.658;2022-11-12T08:16:12;6.90;;;4.03;;
29120;SDS011;16191;49.548;8.658;2022-11-12T08:18:59;6.70;;;4.57;;
29120;SDS011;16191;49.548;8.658;2022-11-12T08:21:44;8.27;;;4.45;;
29120;SDS011;16191;49.548;8.658;2022-11-12T08:24:29;6.80;;;4.30;;
29120;SDS011;16191;49.548;8.658;2022-11-12T08:27:15;21.35;;;6.00;;
29120;SDS011;16191;49.548;8.658;2022-11-12T08:30:00;7.88;;;6.28;;
29120;SDS011;16191;49.548;8.658;2022-11-12T08:32:45;8.23;;;5.95;;
29120;SDS011;16191;49.548;8.658;2022-11-12T08:35:30;24.95;;;6.05;;
29120;SDS011;16191;49.548;8.658;2022-11-12T08:38:16;10.40;;;5.53;;
29120;SDS011;16191;49.548;8.658;2022-11-12T08:41:03;15.52;;;6.13;;
29120;SDS011;16191;49.548;8.658;2022-11-12T08:43:51;17.10;;;5.82;;
29120;SDS011;16191;49.548;8.658;2022-11-12T08:46:36;10.65;;;6.93;;
29120;SDS011;16191;49.548;8.658;2022-11-12T08:49:21;13.70;;;7.70;;
29120;SDS011;16191;49.548;8.658;2022-11-12T08:52:06;13.35;;;7.63;;
29120;SDS011;16191;49.548;8.658;2022-11-12T08:54:54;9.70;;;7.28;;
29120;SDS011;16191;49.548;8.658;2022-11-12T08:57:39;10.00;;;6.78;;
29120;SDS011;16191;49.548;8.658;2022-11-12T09:00:28;55.70;;;8.70;;
29120;SDS011;16191;49.548;8.658;2022-11-12T09:03:19;22.67;;;6.93;;
29120;SDS011;16191;49.548;8.658;2022-11-12T09:06:06;9.68;;;6.88;;
29120;SDS011;16191;49.548;8.658;2022-11-12T09:08:51;12.07;;;6.20;;
29120;SDS011;16191;49.548;8.658;2022-11-12T09:11:37;10.85;;;7.30;;
29120;SDS011;16191;49.548;8.658;2022-11-12T09:14:23;24.45;;;7.18;;
29120;SDS011;16191;49.548;8.658;2022-11-12T09:17:10;11.32;;;6.47;;
29120;SDS011;16191;49.548;8.658;2022-11-12T09:19:56;26.00;;;7.35;;
29120;SDS011;16191;49.548;8.658;2022-11-12T09:22:41;9.57;;;7.70;;
29120;SDS011;16191;49.548;8.658;2022-11-12T09:25:27;11.57;;;7.10;;
29120;SDS011;16191;49.548;8.658;2022-11-12T09:28:16;12.45;;;7.22;;
29120;SDS011;16191;49.548;8.658;2022-11-12T09:31:02;17.73;;;7.70;;
29120;SDS011;16191;49.548;8.658;2022-11-12T09:33:47;17.05;;;7.53;;
29120;SDS011;16191;49.548;8.658;2022-11-12T09:36:33;40.05;;;8.10;;
29120;SDS011;16191;49.548;8.658;2022-11-12T09:39:23;27.65;;;7.57;;
29120;SDS011;16191;49.548;8.658;2022-11-12T09:42:12;19.30;;;7.50;;
29120;SDS011;16191;49.548;8.658;2022-11-12T09:45:02;8.02;;;6.03;;
29120;SDS011;16191;49.548;8.658;2022-11-12T09:47:56;8.50;;;5.53;;
29120;SDS011;16191;49.548;8.658;2022-11-12T09:51:05;11.82;;;6.00;;
29120;SDS011;16191;49.548;8.658;2022-11-12T09:53:57;8.75;;;5.85;;
29120;SDS011;16191;49.548;8.658;2022-11-12T09:56:48;7.60;;;5.25;;
29120;SDS011;16191;49.548;8.658;2022-11-12T09:59:35;9.48;;;5.90;;
29120;SDS011;16191;49.548;8.658;2022-11-12T10:05:19;11.27;;;6.75;;
29120;SDS011;16191;49.548;8.658;2022-11-12T10:11:23;8.43;;;4.80;;
29120;SDS011;16191;49.548;8.658;2022-11-12T10:17:15;10.20;;;5.60;;
29120;SDS011;16191;49.548;8.658;2022-11-12T10:20:19;8.95;;;5.40;;
29120;SDS011;16191;49.548;8.658;2022-11-12T10:26:13;8.25;;;5.40;;
29120;SDS011;16191;49.548;8.658;2022-11-12T10:31:55;7.20;;;5.45;;
29120;SDS011;16191;49.548;8.658;2022-11-12T10:34:40;6.57;;;5.38;;
29120;SDS011;16191;49.548;8.658;2022-11-12T10:40:37;13.45;;;7.80;;
29120;SDS011;16191;49.548;8.658;2022-11-12T10:43:24;10.80;;;6.70;;
29120;SDS011;16191;49.548;8.658;2022-11-12T10:46:20;11.15;;;6.63;;
29120;SDS011;16191;49.548;8.658;2022-11-12T10:51:58;10.65;;;6.15;;
29120;SDS011;16191;49.548;8.658;2022-11-12T10:54:43;12.98;;;7.28;;
29120;SDS011;16191;49.548;8.658;2022-11-12T10:57:29;12.00;;;6.97;;
29120;SDS011;16191;49.548;8.658;2022-11-12T11:00:16;9.88;;;6.75;;
29120;SDS011;16191;49.548;8.658;2022-11-12T11:03:05;13.35;;;8.00;;
29120;SDS011;16191;49.548;8.658;2022-11-12T11:11:56;10.80;;;7.05;;
29120;SDS011;16191;49.548;8.658;2022-11-12T11:14:41;9.40;;;6.80;;
29120;SDS011;16191;49.548;8.658;2022-11-12T11:17:28;11.52;;;8.00;;
29120;SDS011;16191;49.548;8.658;2022-11-12T11:20:18;10.73;;;7.13;;
29120;SDS011;16191;49.548;8.658;2022-11-12T11:23:13;9.65;;;6.95;;
29120;SDS011;16191;49.548;8.658;2022-11-12T11:26:48;11.00;;;7.72;;
29120;SDS011;16191;49.548;8.658;2022-11-12T11:29:19;11.50;;;8.60;;
29120;SDS011;16191;49.548;8.658;2022-11-12T11:35:26;14.23;;;9.85;;
29120;SDS011;16191;49.548;8.658;2022-11-12T11:44:31;10.43;;;7.93;;
29120;SDS011;16191;49.548;8.658;2022-11-12T11:50:38;12.13;;;8.75;;
29120;SDS011;16191;49.548;8.658;2022-11-12T11:53:32;13.98;;;9.38;;
29120;SDS011;16191;49.548;8.658;2022-11-12T11:56:41;16.88;;;9.43;;
29120;SDS011;16191;49.548;8.658;2022-11-12T12:02:51;14.32;;;9.68;;
29120;SDS011;16191;49.548;8.658;2022-11-12T12:05:55;13.80;;;9.55;;
29120;SDS011;16191;49.548;8.658;2022-11-12T12:08:58;19.35;;;11.02;;
29120;SDS011;16191;49.548;8.658;2022-11-12T12:18:24;14.80;;;10.30;;
29120;SDS011;16191;49.548;8.658;2022-11-12T12:21:19;14.10;;;9.20;;
29120;SDS011;16191;49.548;8.658;2022-11-12T12:24:22;13.93;;;9.70;;
29120;SDS011;16191;49.548;8.658;2022-11-12T12:30:16;13.73;;;8.73;;
29120;SDS011;16191;49.548;8.658;2022-11-12T12:36:29;12.55;;;9.20;;
29120;SDS011;16191;49.548;8.658;2022-11-12T12:39:25;15.98;;;10.30;;
29120;SDS011;16191;49.548;8.658;2022-11-12T12:42:33;13.55;;;9.65;;
29120;SDS011;16191;49.548;8.658;2022-11-12T12:45:33;13.38;;;9.77;;
29120;SDS011;16191;49.548;8.658;2022-11-12T12:48:37;11.10;;;8.65;;
29120;SDS011;16191;49.548;8.658;2022-11-12T12:51:27;14.80;;;10.25;;
29120;SDS011;16191;49.548;8.658;2022-11-12T13:00:36;12.27;;;9.63;;
29120;SDS011;16191;49.548;8.658;2022-11-12T13:06:37;15.18;;;11.13;;
29120;SDS011;16191;49.548;8.658;2022-11-12T13:09:25;18.40;;;12.02;;
29120;SDS011;16191;49.548;8.658;2022-11-12T13:12:12;14.27;;;10.40;;
29120;SDS011;16191;49.548;8.658;2022-11-12T13:15:09;17.20;;;12.20;;
29120;SDS011;16191;49.548;8.658;2022-11-12T13:18:00;17.75;;;11.75;;
29120;SDS011;16191;49.548;8.658;2022-11-12T13:21:05;14.10;;;10.70;;
29120;SDS011;16191;49.548;8.658;2022-11-12T13:24:00;16.10;;;11.95;;
29120;SDS011;16191;49.548;8.658;2022-11-12T13:26:55;18.95;;;12.65;;
29120;SDS011;16191;49.548;8.658;2022-11-12T13:29:45;15.18;;;11.63;;
29120;SDS011;16191;49.548;8.658;2022-11-12T13:32:53;18.05;;;12.40;;
29120;SDS011;16191;49.548;8.658;2022-11-12T13:35:37;18.95;;;13.60;;
29120;SDS011;16191;49.548;8.658;2022-11-12T13:38:23;16.05;;;12.15;;
29120;SDS011;16191;49.548;8.658;2022-11-12T13:41:13;16.23;;;12.50;;
29120;SDS011;16191;49.548;8.658;2022-11-12T13:44:03;18.70;;;14.02;;
29120;SDS011;16191;49.548;8.658;2022-11-12T13:46:51;18.13;;;14.15;;
29120;SDS011;16191;49.548;8.658;2022-11-12T13:49:39;14.52;;;11.88;;
29120;SDS011;16191;49.548;8.658;2022-11-12T13:52:26;18.20;;;10.80;;
29120;SDS011;16191;49.548;8.658;2022-11-12T13:55:19;16.48;;;12.02;;
29120;SDS011;16191;49.548;8.658;2022-11-12T13:58:14;19.65;;;14.80;;
29120;SDS011;16191;49.548;8.658;2022-11-12T14:01:03;15.60;;;11.95;;
29120;SDS011;16191;49.548;8.658;2022-11-12T14:03:51;18.42;;;13.90;;
29120;SDS011;16191;49.548;8.658;2022-11-12T14:06:39;17.38;;;12.85;;
29120;SDS011;16191;49.548;8.658;2022-11-12T14:19:17;38.30;;;18.90;;
29120;SDS011;16191;49.548;8.658;2022-11-12T14:22:23;21.67;;;14.75;;
29120;SDS011;16191;49.548;8.658;2022-11-12T14:25:10;19.52;;;14.90;;
29120;SDS011;16191;49.548;8.658;2022-11-12T14:28:03;21.58;;;15.43;;
29120;SDS011;16191;49.548;8.658;2022-11-12T14:30:48;23.92;;;16.27;;
29120;SDS011;16191;49.548;8.658;2022-11-12T14:33:34;20.98;;;15.07;;
29120;SDS011;16191;49.548;8.658;2022-11-12T14:36:19;21.20;;;14.10;;
29120;SDS011;16191;49.548;8.658;2022-11-12T14:39:08;22.92;;;15.25;;
29120;SDS011;16191;49.548;8.658;2022-11-12T14:41:55;22.33;;;16.02;;
29120;SDS011;16191;49.548;8.658;2022-11-12T14:44:42;44.28;;;18.25;;
29120;SDS011;16191;49.548;8.658;2022-11-12T14:47:28;25.48;;;15.95;;
29120;SDS011;16191;49.548;8.658;2022-11-12T14:50:21;25.73;;;16.67;;
29120;SDS011;16191;49.548;8.658;2022-11-12T14:56:33;28.90;;;15.77;;
29120;SDS011;16191;49.548;8.658;2022-11-12T14:59:28;26.58;;;15.68;;
29120;SDS011;16191;49.548;8.658;2022-11-12T15:02:16;25.23;;;16.70;;
29120;SDS011;16191;49.548;8.658;2022-11-12T15:05:25;22.15;;;14.32;;
29120;SDS011;16191;49.548;8.658;2022-11-12T15:08:11;36.05;;;15.35;;
29120;SDS011;16191;49.548;8.658;2022-11-12T15:11:14;32.78;;;14.50;;
29120;SDS011;16191;49.548;8.658;2022-11-12T15:14:08;21.45;;;14.88;;
29120;SDS011;16191;49.548;8.658;2022-11-12T15:17:03;20.20;;;14.27;;
29120;SDS011;16191;49.548;8.658;2022-11-12T15:19:50;21.88;;;15.43;;
29120;SDS011;16191;49.548;8.658;2022-11-12T15:22:35;18.05;;;13.32;;
29120;SDS011;16191;49.548;8.658;2022-11-12T15:25:22;17.38;;;12.40;;
29120;SDS011;16191;49.548;8.658;2022-11-12T15:28:11;25.35;;;12.95;;
29120;SDS011;16191;49.548;8.658;2022-11-12T15:31:19;21.35;;;13.57;;
29120;SDS011;16191;49.548;8.658;2022-11-12T15:34:25;18.70;;;13.07;;
29120;SDS011;16191;49.548;8.658;2022-11-12T15:37:20;20.90;;;14.00;;
29120;SDS011;16191;49.548;8.658;2022-11-12T15:40:13;21.67;;;13.25;;
29120;SDS011;16191;49.548;8.658;2022-11-12T15:43:17;19.63;;;13.02;;
29120;SDS011;16191;49.548;8.658;2022-11-12T15:46:11;18.17;;;12.93;;
29120;SDS011;16191;49.548;8.658;2022-11-12T15:48:59;17.83;;;11.60;;
29120;SDS011;16191;49.548;8.658;2022-11-12T15:51:45;39.88;;;15.43;;
29120;SDS011;16191;49.548;8.658;2022-11-12T15:54:31;22.25;;;13.75;;
29120;SDS011;16191;49.548;8.658;2022-11-12T15:57:24;20.23;;;13.68;;
29120;SDS011;16191;49.548;8.658;2022-11-12T16:00:17;18.75;;;12.13;;
29120;SDS011;16191;49.548;8.658;2022-11-12T16:03:11;22.88;;;13.55;;
29120;SDS011;16191;49.548;8.658;2022-11-12T16:05:59;24.55;;;13.80;;
29120;SDS011;16191;49.548;8.658;2022-11-12T16:08:52;20.67;;;13.30;;
29120;SDS011;16191;49.548;8.658;2022-11-12T16:11:37;22.45;;;13.82;;
29120;SDS011;16191;49.548;8.658;2022-11-12T16:14:23;19.42;;;14.05;;
29120;SDS011;16191;49.548;8.658;2022-11-12T16:17:10;17.90;;;13.05;;
29120;SDS011;16191;49.548;8.658;2022-11-12T16:19:59;19.42;;;13.25;;
29120;SDS011;16191;49.548;8.658;2022-11-12T16:22:46;23.65;;;15.43;;
29120;SDS011;16191;49.548;8.658;2022-11-12T16:25:33;21.83;;;14.52;;
29120;SDS011;16191;49.548;8.658;2022-11-12T16:28:20;28.23;;;14.80;;
29120;SDS011;16191;49.548;8.658;2022-11-12T16:31:06;24.60;;;15.45;;
29120;SDS011;16191;49.548;8.658;2022-11-12T16:33:51;27.13;;;15.23;;
29120;SDS011;16191;49.548;8.658;2022-11-12T16:36:38;26.75;;;16.75;;
29120;SDS011;16191;49.548;8.658;2022-11-12T16:39:24;50.08;;;15.90;;
29120;SDS011;16191;49.548;8.658;2022-11-12T16:42:09;27.42;;;15.40;;
29120;SDS011;16191;49.548;8.658;2022-11-12T16:44:55;36.33;;;16.67;;
29120;SDS011;16191;49.548;8.658;2022-11-12T16:47:44;28.02;;;15.43;;
29120;SDS011;16191;49.548;8.658;2022-11-12T16:50:31;29.70;;;15.73;;
29120;SDS011;16191;49.548;8.658;2022-11-12T16:53:16;21.60;;;14.82;;
29120;SDS011;16191;49.548;8.658;2022-11-12T16:56:02;40.83;;;16.30;;
29120;SDS011;16191;49.548;8.658;2022-11-12T16:58:47;28.73;;;17.17;;
29120;SDS011;16191;49.548;8.658;2022-11-12T17:01:34;21.70;;;14.50;;
29120;SDS011;16191;49.548;8.658;2022-11-12T17:04:18;35.40;;;14.75;;
29120;SDS011;16191;49.548;8.658;2022-11-12T17:07:04;39.72;;;14.88;;
29120;SDS011;16191;49.548;8.658;2022-11-12T17:09:50;29.80;;;15.57;;
29120;SDS011;16191;49.548;8.658;2022-11-12T17:12:38;38.63;;;16.23;;
29120;SDS011;16191;49.548;8.658;2022-11-12T17:15:23;39.33;;;16.30;;
29120;SDS011;16191;49.548;8.658;2022-11-12T17:18:08;31.45;;;15.50;;
29120;SDS011;16191;49.548;8.658;2022-11-12T17:20:54;47.10;;;15.88;;
29120;SDS011;16191;49.548;8.658;2022-11-12T17:23:40;62.13;;;17.50;;
29120;SDS011;16191;49.548;8.658;2022-11-12T17:26:26;46.78;;;17.25;;
29120;SDS011;16191;49.548;8.658;2022-11-12T17:29:11;66.88;;;16.40;;
29120;SDS011;16191;49.548;8.658;2022-11-12T17:31:57;68.63;;;17.58;;
29120;SDS011;16191;49.548;8.658;2022-11-12T17:34:42;44.40;;;16.63;;
29120;SDS011;16191;49.548;8.658;2022-11-12T17:37:28;35.88;;;17.17;;
29120;SDS011;16191;49.548;8.658;2022-11-12T17:40:13;34.88;;;16.73;;
29120;SDS011;16191;49.548;8.658;2022-11-12T17:42:58;35.90;;;16.08;;
29120;SDS011;16191;49.548;8.658;2022-11-12T17:45:50;39.47;;;16.27;;
29120;SDS011;16191;49.548;8.658;2022-11-12T17:48:36;34.50;;;15.48;;
29120;SDS011;16191;49.548;8.658;2022-11-12T17:51:23;33.38;;;16.20;;
29120;SDS011;16191;49.548;8.658;2022-11-12T17:54:10;28.30;;;15.55;;
29120;SDS011;16191;49.548;8.658;2022-11-12T17:56:56;29.77;;;16.77;;
29120;SDS011;16191;49.548;8.658;2022-11-12T17:59:41;37.25;;;17.40;;
29120;SDS011;16191;49.548;8.658;2022-11-12T18:02:26;38.03;;;16.42;;
29120;SDS011;16191;49.548;8.658;2022-11-12T18:05:11;49.28;;;17.88;;